sensor_id;sensor_type;location;lat;lon;timestamp;pressure;altitude;pressure_sealevel;temperature;humidity
83444;BME280;73374;41.170;-96.156;2024-01-10T00:04:22;96189.75;;;-8.64;73.20
83444;BME280;73374;41.170;-96.156;2024-01-10T00:09:25;96221.78;;;-8.85;73.44
83444;BME280;73374;41.170;-96.156;2024-01-10T00:14:28;96214.72;;;-8.95;73.71
83444;BME280;73374;41.170;-96.156;2024-01-10T00:19:33;96209.84;;;-8.98;74.55
83444;BME280;73374;41.170;-96.156;2024-01-10T00:24:36;96173.38;;;-9.26;74.67
83444;BME280;73374;41.170;-96.156;2024-01-10T00:29:39;96195.81;;;-9.04;74.78
83444;BME280;73374;41.170;-96.156;2024-01-10T00:34:44;96209.44;;;-9.08;74.18
83444;BME280;73374;41.170;-96.156;2024-01-10T00:39:47;96202.91;;;-9.12;75.56
83444;BME280;73374;41.170;-96.156;2024-01-10T00:44:50;96191.31;;;-9.33;74.64
83444;BME280;73374;41.170;-96.156;2024-01-10T00:49:54;96240.16;;;-9.39;75.30
83444;BME280;73374;41.170;-96.156;2024-01-10T00:54:57;96227.59;;;-9.58;74.94
83444;BME280;73374;41.170;-96.156;2024-01-10T01:00:00;96272.25;;;-9.44;74.91
83444;BME280;73374;41.170;-96.156;2024-01-10T01:05:06;96264.03;;;-9.48;75.32
83444;BME280;73374;41.170;-96.156;2024-01-10T01:10:09;96278.91;;;-9.43;75.57
83444;BME280;73374;41.170;-96.156;2024-01-10T01:15:12;96288.47;;;-9.51;75.22
83444;BME280;73374;41.170;-96.156;2024-01-10T01:20:17;96287.66;;;-9.52;75.96
83444;BME280;73374;41.170;-96.156;2024-01-10T01:25:20;96273.78;;;-9.60;76.55
83444;BME280;73374;41.170;-96.156;2024-01-10T01:30:23;96294.47;;;-9.74;76.46
83444;BME280;73374;41.170;-96.156;2024-01-10T01:35:28;96291.03;;;-9.71;76.53
83444;BME280;73374;41.170;-96.156;2024-01-10T01:40:31;96297.41;;;-9.64;76.43
83444;BME280;73374;41.170;-96.156;2024-01-10T01:45:34;96288.28;;;-9.86;76.44
83444;BME280;73374;41.170;-96.156;2024-01-10T01:50:39;96259.41;;;-9.77;76.43
83444;BME280;73374;41.170;-96.156;2024-01-10T01:55:43;96242.59;;;-9.75;76.34
83444;BME280;73374;41.170;-96.156;2024-01-10T02:00:47;96221.81;;;-9.79;76.29
83444;BME280;73374;41.170;-96.156;2024-01-10T02:05:52;96224.72;;;-9.88;76.15
83444;BME280;73374;41.170;-96.156;2024-01-10T02:10:55;96232.97;;;-10.05;76.82
83444;BME280;73374;41.170;-96.156;2024-01-10T02:15:58;96229.56;;;-10.22;76.62
83444;BME280;73374;41.170;-96.156;2024-01-10T02:21:03;96229.97;;;-10.53;76.55
83444;BME280;73374;41.170;-96.156;2024-01-10T02:26:08;96222.81;;;-10.42;77.32
83444;BME280;73374;41.170;-96.156;2024-01-10T02:31:11;96238.34;;;-10.14;77.00
83444;BME280;73374;41.170;-96.156;2024-01-10T02:36:15;96240.28;;;-10.39;76.53
83444;BME280;73374;41.170;-96.156;2024-01-10T02:41:19;96215.06;;;-10.56;76.95
83444;BME280;73374;41.170;-96.156;2024-01-10T02:46:22;96218.53;;;-10.60;77.40
83444;BME280;73374;41.170;-96.156;2024-01-10T02:51:27;96206.31;;;-10.48;77.57
83444;BME280;73374;41.170;-96.156;2024-01-10T02:56:31;96190.13;;;-10.61;77.83
83444;BME280;73374;41.170;-96.156;2024-01-10T03:01:34;96185.56;;;-10.51;77.60
83444;BME280;73374;41.170;-96.156;2024-01-10T03:06:37;96165.91;;;-10.62;77.07
83444;BME280;73374;41.170;-96.156;2024-01-10T03:11:42;96160.03;;;-10.61;77.71
83444;BME280;73374;41.170;-96.156;2024-01-10T03:16:45;96141.22;;;-10.71;77.59
83444;BME280;73374;41.170;-96.156;2024-01-10T03:21:48;96151.38;;;-10.54;78.45
83444;BME280;73374;41.170;-96.156;2024-01-10T03:26:53;96160.28;;;-10.67;77.87
83444;BME280;73374;41.170;-96.156;2024-01-10T03:31:56;96183.84;;;-10.91;77.95
83444;BME280;73374;41.170;-96.156;2024-01-10T03:36:59;96217.81;;;-11.28;78.73
83444;BME280;73374;41.170;-96.156;2024-01-10T03:42:04;96222.97;;;-11.09;79.00
83444;BME280;73374;41.170;-96.156;2024-01-10T03:47:07;96219.28;;;-11.01;78.38
83444;BME280;73374;41.170;-96.156;2024-01-10T03:52:10;96223.38;;;-11.20;79.07
83444;BME280;73374;41.170;-96.156;2024-01-10T03:57:15;96240.09;;;-11.20;79.30
83444;BME280;73374;41.170;-96.156;2024-01-10T04:02:18;96236.81;;;-11.44;79.04
83444;BME280;73374;41.170;-96.156;2024-01-10T04:07:21;96247.41;;;-11.60;78.64
83444;BME280;73374;41.170;-96.156;2024-01-10T04:12:26;96242.22;;;-11.55;78.85
83444;BME280;73374;41.170;-96.156;2024-01-10T04:17:29;96236.78;;;-11.43;79.27
83444;BME280;73374;41.170;-96.156;2024-01-10T04:22:32;96236.97;;;-11.26;80.36
83444;BME280;73374;41.170;-96.156;2024-01-10T04:27:37;96253.22;;;-11.14;78.90
83444;BME280;73374;41.170;-96.156;2024-01-10T04:32:40;96267.84;;;-11.25;79.51
83444;BME280;73374;41.170;-96.156;2024-01-10T04:37:43;96269.88;;;-11.35;79.82
83444;BME280;73374;41.170;-96.156;2024-01-10T04:42:48;96258.50;;;-11.43;79.46
83444;BME280;73374;41.170;-96.156;2024-01-10T04:47:51;96237.78;;;-11.25;80.48
83444;BME280;73374;41.170;-96.156;2024-01-10T04:52:54;96231.03;;;-11.23;79.35
83444;BME280;73374;41.170;-96.156;2024-01-10T04:57:59;96229.91;;;-11.16;81.91
83444;BME280;73374;41.170;-96.156;2024-01-10T05:03:02;96230.91;;;-11.20;81.13
83444;BME280;73374;41.170;-96.156;2024-01-10T05:08:06;96209.28;;;-11.22;80.61
83444;BME280;73374;41.170;-96.156;2024-01-10T05:13:10;96186.47;;;-11.16;80.85
83444;BME280;73374;41.170;-96.156;2024-01-10T05:18:13;96193.88;;;-11.13;80.31
83444;BME280;73374;41.170;-96.156;2024-01-10T05:23:16;96203.75;;;-11.09;81.34
83444;BME280;73374;41.170;-96.156;2024-01-10T05:28:23;96177.06;;;-11.11;80.49
83444;BME280;73374;41.170;-96.156;2024-01-10T05:33:26;96165.75;;;-11.00;80.79
83444;BME280;73374;41.170;-96.156;2024-01-10T05:38:29;96182.84;;;-10.87;80.76
83444;BME280;73374;41.170;-96.156;2024-01-10T05:43:33;96158.44;;;-10.84;80.39
83444;BME280;73374;41.170;-96.156;2024-01-10T05:48:36;96133.84;;;-10.96;80.95
83444;BME280;73374;41.170;-96.156;2024-01-10T05:53:40;96152.69;;;-10.66;80.27
83444;BME280;73374;41.170;-96.156;2024-01-10T05:58:44;96141.66;;;-10.61;80.56
83444;BME280;73374;41.170;-96.156;2024-01-10T06:03:47;96136.56;;;-10.60;79.85
83444;BME280;73374;41.170;-96.156;2024-01-10T06:08:50;96141.84;;;-10.66;79.67
83444;BME280;73374;41.170;-96.156;2024-01-10T06:13:55;96143.16;;;-10.78;79.61
83444;BME280;73374;41.170;-96.156;2024-01-10T06:18:59;96152.13;;;-10.72;80.02
83444;BME280;73374;41.170;-96.156;2024-01-10T06:24:02;96136.56;;;-10.60;79.81
83444;BME280;73374;41.170;-96.156;2024-01-10T06:29:07;96146.50;;;-10.57;80.01
83444;BME280;73374;41.170;-96.156;2024-01-10T06:34:10;96132.56;;;-10.64;79.71
83444;BME280;73374;41.170;-96.156;2024-01-10T06:39:13;96113.56;;;-10.70;80.09
83444;BME280;73374;41.170;-96.156;2024-01-10T06:44:18;96094.28;;;-10.49;80.56
83444;BME280;73374;41.170;-96.156;2024-01-10T06:49:21;96078.38;;;-10.68;80.36
83444;BME280;73374;41.170;-96.156;2024-01-10T06:54:24;96073.50;;;-10.71;81.14
83444;BME280;73374;41.170;-96.156;2024-01-10T06:59:29;96053.72;;;-10.79;81.68
83444;BME280;73374;41.170;-96.156;2024-01-10T07:04:32;96068.78;;;-10.79;81.19
83444;BME280;73374;41.170;-96.156;2024-01-10T07:09:35;96032.78;;;-10.78;81.31
83444;BME280;73374;41.170;-96.156;2024-01-10T07:14:39;96038.63;;;-10.77;81.22
83444;BME280;73374;41.170;-96.156;2024-01-10T07:19:42;96053.22;;;-10.67;81.41
83444;BME280;73374;41.170;-96.156;2024-01-10T07:24:45;96040.84;;;-10.51;81.87
83444;BME280;73374;41.170;-96.156;2024-01-10T07:29:50;96040.25;;;-10.37;81.34
83444;BME280;73374;41.170;-96.156;2024-01-10T07:34:53;96029.72;;;-10.26;80.87
83444;BME280;73374;41.170;-96.156;2024-01-10T07:39:56;96014.09;;;-10.14;81.13
83444;BME280;73374;41.170;-96.156;2024-01-10T07:45:01;96016.34;;;-9.91;81.27
83444;BME280;73374;41.170;-96.156;2024-01-10T07:50:05;96029.06;;;-9.94;80.79
83444;BME280;73374;41.170;-96.156;2024-01-10T07:55:09;96024.22;;;-9.80;80.80
83444;BME280;73374;41.170;-96.156;2024-01-10T08:00:15;96012.50;;;-9.62;80.87
83444;BME280;73374;41.170;-96.156;2024-01-10T08:05:18;96017.44;;;-9.60;81.34
83444;BME280;73374;41.170;-96.156;2024-01-10T08:10:21;96018.84;;;-9.55;80.76
83444;BME280;73374;41.170;-96.156;2024-01-10T08:15:26;96014.56;;;-9.70;81.49
83444;BME280;73374;41.170;-96.156;2024-01-10T08:20:29;95977.94;;;-9.93;81.44
83444;BME280;73374;41.170;-96.156;2024-01-10T08:25:32;95954.03;;;-9.83;81.54
83444;BME280;73374;41.170;-96.156;2024-01-10T08:30:36;95927.72;;;-9.76;81.74
83444;BME280;73374;41.170;-96.156;2024-01-10T08:35:40;95941.03;;;-9.74;82.11
83444;BME280;73374;41.170;-96.156;2024-01-10T08:40:43;95922.53;;;-9.55;82.61
83444;BME280;73374;41.170;-96.156;2024-01-10T08:45:47;95899.78;;;-9.52;83.24
83444;BME280;73374;41.170;-96.156;2024-01-10T08:50:50;95914.25;;;-9.40;83.44
83444;BME280;73374;41.170;-96.156;2024-01-10T08:55:53;95914.16;;;-9.38;83.11
83444;BME280;73374;41.170;-96.156;2024-01-10T09:00:58;95915.44;;;-9.47;83.67
83444;BME280;73374;41.170;-96.156;2024-01-10T09:06:01;95920.72;;;-9.52;83.42
83444;BME280;73374;41.170;-96.156;2024-01-10T09:11:12;95904.38;;;-9.60;83.47
83444;BME280;73374;41.170;-96.156;2024-01-10T09:16:17;95914.94;;;-9.54;83.19
83444;BME280;73374;41.170;-96.156;2024-01-10T09:21:20;95905.03;;;-9.57;83.39
83444;BME280;73374;41.170;-96.156;2024-01-10T09:26:23;95909.13;;;-9.54;83.26
83444;BME280;73374;41.170;-96.156;2024-01-10T09:31:28;95905.84;;;-9.56;83.31
83444;BME280;73374;41.170;-96.156;2024-01-10T09:36:31;95906.22;;;-9.64;83.29
83444;BME280;73374;41.170;-96.156;2024-01-10T09:41:40;95879.84;;;-9.73;83.22
83444;BME280;73374;41.170;-96.156;2024-01-10T09:46:47;95881.84;;;-9.79;83.06
83444;BME280;73374;41.170;-96.156;2024-01-10T09:51:58;95900.53;;;-9.67;83.25
83444;BME280;73374;41.170;-96.156;2024-01-10T09:57:01;95881.03;;;-9.62;83.04
83444;BME280;73374;41.170;-96.156;2024-01-10T10:02:06;95883.09;;;-9.53;82.86
83444;BME280;73374;41.170;-96.156;2024-01-10T10:07:09;95892.25;;;-9.52;82.80
83444;BME280;73374;41.170;-96.156;2024-01-10T10:12:12;95864.28;;;-9.46;82.90
83444;BME280;73374;41.170;-96.156;2024-01-10T10:17:17;95876.41;;;-9.37;82.51
83444;BME280;73374;41.170;-96.156;2024-01-10T10:22:20;95848.75;;;-9.37;82.30
83444;BME280;73374;41.170;-96.156;2024-01-10T10:27:23;95858.19;;;-9.25;82.26
83444;BME280;73374;41.170;-96.156;2024-01-10T10:32:28;95858.25;;;-9.26;82.59
83444;BME280;73374;41.170;-96.156;2024-01-10T10:37:32;95838.63;;;-9.35;82.39
83444;BME280;73374;41.170;-96.156;2024-01-10T10:42:40;95812.72;;;-9.37;82.16
83444;BME280;73374;41.170;-96.156;2024-01-10T10:47:48;95822.06;;;-9.39;82.32
83444;BME280;73374;41.170;-96.156;2024-01-10T10:52:54;95813.88;;;-9.43;81.47
83444;BME280;73374;41.170;-96.156;2024-01-10T10:57:58;95819.69;;;-9.43;81.42
83444;BME280;73374;41.170;-96.156;2024-01-10T11:03:13;95763.66;;;-9.60;81.75
83444;BME280;73374;41.170;-96.156;2024-01-10T11:08:18;95772.53;;;-9.53;81.65
83444;BME280;73374;41.170;-96.156;2024-01-10T11:13:27;95783.63;;;-9.42;81.75
83444;BME280;73374;41.170;-96.156;2024-01-10T11:18:55;95780.94;;;-9.38;81.22
83444;BME280;73374;41.170;-96.156;2024-01-10T11:24:03;95767.09;;;-9.46;81.53
83444;BME280;73374;41.170;-96.156;2024-01-10T11:29:07;95761.31;;;-9.48;81.26
83444;BME280;73374;41.170;-96.156;2024-01-10T11:34:11;95770.06;;;-9.55;81.02
83444;BME280;73374;41.170;-96.156;2024-01-10T11:39:15;95766.72;;;-9.55;81.28
83444;BME280;73374;41.170;-96.156;2024-01-10T11:44:28;95741.75;;;-9.58;81.24
83444;BME280;73374;41.170;-96.156;2024-01-10T11:49:34;95731.53;;;-9.55;80.96
83444;BME280;73374;41.170;-96.156;2024-01-10T11:54:41;95717.38;;;-9.56;81.27
83444;BME280;73374;41.170;-96.156;2024-01-10T11:59:45;95693.13;;;-9.57;80.95
83444;BME280;73374;41.170;-96.156;2024-01-10T12:04:50;95700.19;;;-9.48;81.01
83444;BME280;73374;41.170;-96.156;2024-01-10T12:09:55;95704.06;;;-9.58;81.44
83444;BME280;73374;41.170;-96.156;2024-01-10T12:14:58;95691.84;;;-9.64;80.90
83444;BME280;73374;41.170;-96.156;2024-01-10T12:20:03;95707.09;;;-9.67;81.30
83444;BME280;73374;41.170;-96.156;2024-01-10T12:25:07;95703.84;;;-9.69;81.54
83444;BME280;73374;41.170;-96.156;2024-01-10T12:30:11;95703.31;;;-9.76;81.29
83444;BME280;73374;41.170;-96.156;2024-01-10T12:35:17;95675.38;;;-9.86;81.47
83444;BME280;73374;41.170;-96.156;2024-01-10T12:40:22;95677.22;;;-9.74;81.08
83444;BME280;73374;41.170;-96.156;2024-01-10T12:45:25;95669.94;;;-9.62;81.32
83444;BME280;73374;41.170;-96.156;2024-01-10T12:50:30;95659.66;;;-9.58;81.00
83444;BME280;73374;41.170;-96.156;2024-01-10T12:55:33;95670.38;;;-9.54;80.65
83444;BME280;73374;41.170;-96.156;2024-01-10T13:00:36;95671.66;;;-9.47;79.91
83444;BME280;73374;41.170;-96.156;2024-01-10T13:05:41;95662.84;;;-9.54;80.25
83444;BME280;73374;41.170;-96.156;2024-01-10T13:10:44;95664.75;;;-9.44;80.79
83444;BME280;73374;41.170;-96.156;2024-01-10T13:15:48;95659.00;;;-9.61;80.31
83444;BME280;73374;41.170;-96.156;2024-01-10T13:20:53;95667.19;;;-9.26;79.84
83444;BME280;73374;41.170;-96.156;2024-01-10T13:25:56;95675.16;;;-9.34;79.99
83444;BME280;73374;41.170;-96.156;2024-01-10T13:30:59;95677.88;;;-9.38;79.51
83444;BME280;73374;41.170;-96.156;2024-01-10T13:36:04;95677.06;;;-9.39;79.73
83444;BME280;73374;41.170;-96.156;2024-01-10T13:41:07;95659.72;;;-9.44;79.59
83444;BME280;73374;41.170;-96.156;2024-01-10T13:46:10;95677.75;;;-9.35;79.40
83444;BME280;73374;41.170;-96.156;2024-01-10T13:51:15;95655.84;;;-9.33;79.80
83444;BME280;73374;41.170;-96.156;2024-01-10T13:56:18;95667.34;;;-9.29;79.72
83444;BME280;73374;41.170;-96.156;2024-01-10T14:01:21;95664.75;;;-9.28;79.30
83444;BME280;73374;41.170;-96.156;2024-01-10T14:06:26;95661.50;;;-9.30;79.27
83444;BME280;73374;41.170;-96.156;2024-01-10T14:11:29;95653.16;;;-9.30;78.57
83444;BME280;73374;41.170;-96.156;2024-01-10T14:16:32;95658.81;;;-9.27;78.46
83444;BME280;73374;41.170;-96.156;2024-01-10T14:21:37;95673.56;;;-9.21;78.26
83444;BME280;73374;41.170;-96.156;2024-01-10T14:26:40;95671.63;;;-9.16;78.00
83444;BME280;73374;41.170;-96.156;2024-01-10T14:31:43;95643.38;;;-9.05;77.99
83444;BME280;73374;41.170;-96.156;2024-01-10T14:36:53;95646.75;;;-8.90;77.79
83444;BME280;73374;41.170;-96.156;2024-01-10T14:41:56;95660.81;;;-8.72;77.22
83444;BME280;73374;41.170;-96.156;2024-01-10T14:46:59;95633.34;;;-8.61;76.79
83444;BME280;73374;41.170;-96.156;2024-01-10T14:52:14;95635.31;;;-8.23;75.04
83444;BME280;73374;41.170;-96.156;2024-01-10T14:57:17;95618.00;;;-7.86;73.89
83444;BME280;73374;41.170;-96.156;2024-01-10T15:02:20;95620.97;;;-7.39;72.18
83444;BME280;73374;41.170;-96.156;2024-01-10T15:07:25;95622.47;;;-6.31;71.14
83444;BME280;73374;41.170;-96.156;2024-01-10T15:12:28;95623.66;;;-5.99;67.63
83444;BME280;73374;41.170;-96.156;2024-01-10T15:17:32;95622.84;;;-5.39;65.90
83444;BME280;73374;41.170;-96.156;2024-01-10T15:22:37;95611.25;;;-4.47;62.54
83444;BME280;73374;41.170;-96.156;2024-01-10T15:27:40;95615.19;;;-3.87;61.81
83444;BME280;73374;41.170;-96.156;2024-01-10T15:32:43;95603.53;;;-3.68;59.48
83444;BME280;73374;41.170;-96.156;2024-01-10T15:37:48;95625.63;;;-3.47;58.67
83444;BME280;73374;41.170;-96.156;2024-01-10T15:42:51;95618.53;;;-2.36;54.93
83444;BME280;73374;41.170;-96.156;2024-01-10T15:47:55;95601.66;;;-2.37;55.40
83444;BME280;73374;41.170;-96.156;2024-01-10T15:52:59;95618.69;;;-3.34;57.17
83444;BME280;73374;41.170;-96.156;2024-01-10T15:58:04;95609.47;;;-1.59;51.41
83444;BME280;73374;41.170;-96.156;2024-01-10T16:03:07;95596.19;;;-0.08;49.14
83444;BME280;73374;41.170;-96.156;2024-01-10T16:08:12;95598.78;;;1.10;44.74
83444;BME280;73374;41.170;-96.156;2024-01-10T16:13:15;95612.47;;;-1.44;49.13
83444;BME280;73374;41.170;-96.156;2024-01-10T16:18:18;95613.84;;;1.13;44.35
83444;BME280;73374;41.170;-96.156;2024-01-10T16:23:24;95598.59;;;-0.06;48.19
83444;BME280;73374;41.170;-96.156;2024-01-10T16:28:27;95605.78;;;-0.29;48.45
83444;BME280;73374;41.170;-96.156;2024-01-10T16:33:31;95603.81;;;1.02;46.87
83444;BME280;73374;41.170;-96.156;2024-01-10T16:38:36;95590.25;;;2.57;45.54
83444;BME280;73374;41.170;-96.156;2024-01-10T16:43:39;95569.22;;;2.96;43.70
83444;BME280;73374;41.170;-96.156;2024-01-10T16:48:43;95519.25;;;4.89;42.32
83444;BME280;73374;41.170;-96.156;2024-01-10T16:53:48;95496.53;;;3.52;42.81
83444;BME280;73374;41.170;-96.156;2024-01-10T16:58:51;95508.66;;;1.60;44.88
83444;BME280;73374;41.170;-96.156;2024-01-10T17:03:55;95498.50;;;1.76;46.77
83444;BME280;73374;41.170;-96.156;2024-01-10T17:09:00;95513.19;;;0.61;48.32
83444;BME280;73374;41.170;-96.156;2024-01-10T17:14:04;95536.59;;;-0.16;51.94
83444;BME280;73374;41.170;-96.156;2024-01-10T17:19:07;95526.06;;;1.83;48.64
83444;BME280;73374;41.170;-96.156;2024-01-10T17:41:16;95470.59;;;7.35;40.05
83444;BME280;73374;41.170;-96.156;2024-01-10T17:46:20;95460.78;;;3.35;44.17
83444;BME280;73374;41.170;-96.156;2024-01-10T17:51:25;95437.69;;;5.27;40.59
83444;BME280;73374;41.170;-96.156;2024-01-10T17:56:30;95434.03;;;4.84;40.51
83444;BME280;73374;41.170;-96.156;2024-01-10T18:01:33;95436.69;;;3.52;44.21
83444;BME280;73374;41.170;-96.156;2024-01-10T18:06:38;95459.31;;;2.26;48.43
83444;BME280;73374;41.170;-96.156;2024-01-10T18:11:43;95416.63;;;4.26;45.18
83444;BME280;73374;41.170;-96.156;2024-01-10T18:16:48;95425.84;;;1.69;50.16
83444;BME280;73374;41.170;-96.156;2024-01-10T18:21:52;95416.41;;;2.77;49.16
83444;BME280;73374;41.170;-96.156;2024-01-10T18:26:57;95407.31;;;3.46;47.62
83444;BME280;73374;41.170;-96.156;2024-01-10T18:32:00;95408.88;;;2.59;49.94
83444;BME280;73374;41.170;-96.156;2024-01-10T18:37:04;95403.63;;;2.45;49.86
83444;BME280;73374;41.170;-96.156;2024-01-10T18:42:09;95399.28;;;2.29;49.41
83444;BME280;73374;41.170;-96.156;2024-01-10T18:47:12;95378.38;;;3.21;48.01
83444;BME280;73374;41.170;-96.156;2024-01-10T18:52:16;95373.47;;;2.22;49.83
83444;BME280;73374;41.170;-96.156;2024-01-10T18:57:20;95354.06;;;1.37;51.48
83444;BME280;73374;41.170;-96.156;2024-01-10T19:02:27;95347.19;;;1.96;51.11
83444;BME280;73374;41.170;-96.156;2024-01-10T19:07:31;95351.16;;;1.90;50.54
83444;BME280;73374;41.170;-96.156;2024-01-10T19:12:38;95336.34;;;2.10;49.93
83444;BME280;73374;41.170;-96.156;2024-01-10T19:17:42;95334.53;;;1.86;50.48
83444;BME280;73374;41.170;-96.156;2024-01-10T19:22:45;95332.75;;;2.92;48.75
83444;BME280;73374;41.170;-96.156;2024-01-10T19:27:51;95364.50;;;1.09;53.05
83444;BME280;73374;41.170;-96.156;2024-01-10T19:32:55;95374.03;;;0.73;54.09
83444;BME280;73374;41.170;-96.156;2024-01-10T19:37:58;95375.34;;;0.59;54.66
83444;BME280;73374;41.170;-96.156;2024-01-10T19:43:03;95379.97;;;0.82;54.98
83444;BME280;73374;41.170;-96.156;2024-01-10T19:48:08;95331.38;;;1.42;53.38
83444;BME280;73374;41.170;-96.156;2024-01-10T19:53:12;95328.66;;;0.49;55.82
83444;BME280;73374;41.170;-96.156;2024-01-10T19:58:19;95283.59;;;1.50;54.30
83444;BME280;73374;41.170;-96.156;2024-01-10T20:03:43;95261.69;;;1.64;53.70
83444;BME280;73374;41.170;-96.156;2024-01-10T20:09:03;95249.34;;;1.51;53.14
83444;BME280;73374;41.170;-96.156;2024-01-10T20:14:10;95214.34;;;1.68;52.63
83444;BME280;73374;41.170;-96.156;2024-01-10T20:19:14;95196.78;;;1.57;54.27
83444;BME280;73374;41.170;-96.156;2024-01-10T20:24:17;95192.59;;;1.89;55.83
83444;BME280;73374;41.170;-96.156;2024-01-10T20:29:24;95211.06;;;0.33;56.30
83444;BME280;73374;41.170;-96.156;2024-01-10T20:34:33;95202.03;;;0.81;54.78
83444;BME280;73374;41.170;-96.156;2024-01-10T20:39:37;95223.63;;;2.26;50.58
83444;BME280;73374;41.170;-96.156;2024-01-10T20:44:45;95337.06;;;0.68;55.27
83444;BME280;73374;41.170;-96.156;2024-01-10T20:49:50;95358.94;;;0.88;56.04
83444;BME280;73374;41.170;-96.156;2024-01-10T20:54:55;95360.94;;;0.33;57.25
83444;BME280;73374;41.170;-96.156;2024-01-10T21:00:00;95352.84;;;2.64;50.84
83444;BME280;73374;41.170;-96.156;2024-01-10T21:05:03;95342.22;;;3.47;48.45
83444;BME280;73374;41.170;-96.156;2024-01-10T21:10:07;95343.53;;;3.97;47.61
83444;BME280;73374;41.170;-96.156;2024-01-10T21:15:12;95350.63;;;4.41;46.85
83444;BME280;73374;41.170;-96.156;2024-01-10T21:20:16;95352.19;;;5.47;46.10
83444;BME280;73374;41.170;-96.156;2024-01-10T21:25:19;95346.09;;;4.66;44.76
83444;BME280;73374;41.170;-96.156;2024-01-10T21:30:23;95352.53;;;6.94;42.34
83444;BME280;73374;41.170;-96.156;2024-01-10T21:35:26;95331.44;;;6.91;41.01
83444;BME280;73374;41.170;-96.156;2024-01-10T21:40:29;95339.44;;;8.66;38.43
83444;BME280;73374;41.170;-96.156;2024-01-10T21:45:34;95383.13;;;3.41;45.59
83444;BME280;73374;41.170;-96.156;2024-01-10T21:50:37;95367.66;;;3.18;49.20
83444;BME280;73374;41.170;-96.156;2024-01-10T21:55:40;95359.88;;;1.55;52.12
83444;BME280;73374;41.170;-96.156;2024-01-10T22:00:45;95386.59;;;2.11;51.87
83444;BME280;73374;41.170;-96.156;2024-01-10T22:05:48;95377.53;;;3.76;49.09
83444;BME280;73374;41.170;-96.156;2024-01-10T22:10:51;95389.84;;;2.62;50.41
83444;BME280;73374;41.170;-96.156;2024-01-10T22:15:56;95408.63;;;1.19;55.25
83444;BME280;73374;41.170;-96.156;2024-01-10T22:20:59;95418.38;;;1.42;55.94
83444;BME280;73374;41.170;-96.156;2024-01-10T22:26:02;95430.56;;;0.96;57.62
83444;BME280;73374;41.170;-96.156;2024-01-10T22:31:07;95430.75;;;0.06;59.58
83444;BME280;73374;41.170;-96.156;2024-01-10T22:36:10;95429.38;;;-0.34;60.74
83444;BME280;73374;41.170;-96.156;2024-01-10T22:41:13;95458.25;;;-0.80;63.19
83444;BME280;73374;41.170;-96.156;2024-01-10T22:46:18;95461.38;;;-0.86;64.97
83444;BME280;73374;41.170;-96.156;2024-01-10T22:51:21;95460.56;;;-0.97;65.14
83444;BME280;73374;41.170;-96.156;2024-01-10T22:56:24;95470.66;;;-1.14;68.12
83444;BME280;73374;41.170;-96.156;2024-01-10T23:01:28;95509.09;;;-1.75;71.30
83444;BME280;73374;41.170;-96.156;2024-01-10T23:06:31;95515.34;;;-1.99;75.65
83444;BME280;73374;41.170;-96.156;2024-01-10T23:11:35;95516.03;;;-2.27;78.72
83444;BME280;73374;41.170;-96.156;2024-01-10T23:16:40;95523.75;;;-2.38;80.06
83444;BME280;73374;41.170;-96.156;2024-01-10T23:21:43;95523.75;;;-2.69;81.51
83444;BME280;73374;41.170;-96.156;2024-01-10T23:26:45;95544.41;;;-2.32;81.66
83444;BME280;73374;41.170;-96.156;2024-01-10T23:31:50;95548.72;;;-2.74;82.69
83444;BME280;73374;41.170;-96.156;2024-01-10T23:36:54;95549.16;;;-2.69;83.27
83444;BME280;73374;41.170;-96.156;2024-01-10T23:41:57;95543.69;;;-2.85;83.38
83444;BME280;73374;41.170;-96.156;2024-01-10T23:47:01;95552.38;;;-2.67;83.62
83444;BME280;73374;41.170;-96.156;2024-01-10T23:52:04;95560.22;;;-2.49;82.99
83444;BME280;73374;41.170;-96.156;2024-01-10T23:57:07;95561.06;;;-2.69;82.53
